createdAt,value
2017-10-29T00:02:25.077Z,5.37
2017-10-29T00:04:51.664Z,6.00
2017-10-29T00:07:18.310Z,5.53
2017-10-29T00:09:44.904Z,6.63
2017-10-29T00:12:11.527Z,6.30
2017-10-29T00:14:38.142Z,5.30
2017-10-29T00:17:04.742Z,6.03
2017-10-29T00:19:31.344Z,5.83
2017-10-29T00:21:57.966Z,6.17
2017-10-29T00:24:24.598Z,6.87
2017-10-29T00:26:51.205Z,6.50
2017-10-29T00:29:17.800Z,6.77
2017-10-29T00:31:44.418Z,6.47
2017-10-29T00:34:11.069Z,7.10
2017-10-29T00:36:37.697Z,6.40
2017-10-29T00:39:04.313Z,7.10
2017-10-29T00:41:30.929Z,6.80
2017-10-29T00:43:57.563Z,6.57
2017-10-29T00:46:24.272Z,6.20
2017-10-29T00:48:50.918Z,6.50
2017-10-29T00:51:17.510Z,6.20
2017-10-29T00:53:44.138Z,5.83
2017-10-29T00:56:10.826Z,6.40
2017-10-29T00:58:37.419Z,6.57
2017-10-29T01:01:04.051Z,6.20
2017-10-29T01:03:30.648Z,6.00
2017-10-29T01:05:57.241Z,6.27
2017-10-29T01:08:23.869Z,5.20
2017-10-29T01:10:50.479Z,6.10
2017-10-29T01:13:17.075Z,5.70
2017-10-29T01:15:43.742Z,5.50
2017-10-29T01:18:10.358Z,6.40
2017-10-29T01:20:36.980Z,5.70
2017-10-29T01:23:03.599Z,5.50
2017-10-29T01:25:30.275Z,6.30
2017-10-29T01:27:56.886Z,6.17
2017-10-29T01:30:23.503Z,6.50
2017-10-29T01:32:50.138Z,6.20
2017-10-29T01:35:16.748Z,5.80
2017-10-29T01:37:43.341Z,5.93
2017-10-29T01:40:09.950Z,7.30
2017-10-29T01:42:36.552Z,5.90
2017-10-29T01:45:03.184Z,6.40
2017-10-29T01:47:29.809Z,6.40
2017-10-29T01:49:56.423Z,6.47
2017-10-29T01:52:23.044Z,6.00
2017-10-29T01:54:49.685Z,6.20
2017-10-29T01:57:16.334Z,5.83
2017-10-29T01:59:42.966Z,6.10
2017-10-29T02:02:09.561Z,5.80
2017-10-29T02:04:36.173Z,5.73
2017-10-29T02:07:02.790Z,6.03
2017-10-29T02:09:29.404Z,5.87
2017-10-29T02:11:56.018Z,6.13
2017-10-29T02:14:22.641Z,5.90
2017-10-29T02:16:49.254Z,5.67
2017-10-29T02:19:15.865Z,6.23
2017-10-29T02:21:42.482Z,5.40
2017-10-29T02:24:09.097Z,5.23
2017-10-29T02:26:35.693Z,5.53
2017-10-29T02:29:02.345Z,5.13
2017-10-29T02:31:28.949Z,5.50
2017-10-29T02:33:55.557Z,4.73
2017-10-29T02:36:22.145Z,5.13
2017-10-29T02:38:48.769Z,4.80
2017-10-29T02:41:15.381Z,4.50
2017-10-29T02:43:41.978Z,5.30
2017-10-29T02:46:08.605Z,5.10
2017-10-29T02:48:35.242Z,5.00
2017-10-29T02:51:01.850Z,4.73
2017-10-29T02:53:28.458Z,4.47
2017-10-29T02:55:55.070Z,4.37
2017-10-29T02:58:21.678Z,5.47
2017-10-29T03:00:48.309Z,4.60
2017-10-29T03:03:14.916Z,4.60
2017-10-29T03:05:41.534Z,4.70
2017-10-29T03:08:08.177Z,4.00
2017-10-29T03:10:34.786Z,4.60
2017-10-29T03:13:01.427Z,4.80
2017-10-29T03:15:28.021Z,4.50
2017-10-29T03:17:54.622Z,4.13
2017-10-29T03:20:21.251Z,3.80
2017-10-29T03:22:47.864Z,4.07
2017-10-29T03:25:14.473Z,3.93
2017-10-29T03:27:41.081Z,4.10
2017-10-29T03:30:07.697Z,4.00
2017-10-29T03:32:34.417Z,4.03
2017-10-29T03:35:01.015Z,3.93
2017-10-29T03:37:27.626Z,3.50
2017-10-29T03:39:54.330Z,3.50
2017-10-29T03:42:20.921Z,3.70
2017-10-29T03:44:47.554Z,3.60
2017-10-29T03:47:14.166Z,3.30
2017-10-29T03:49:40.762Z,3.40
2017-10-29T03:52:07.390Z,2.90
2017-10-29T03:54:33.981Z,3.20
2017-10-29T03:57:00.579Z,2.93
2017-10-29T03:59:27.201Z,2.80
2017-10-29T04:01:53.801Z,3.10
2017-10-29T04:04:20.441Z,3.17
2017-10-29T04:06:47.081Z,3.20
2017-10-29T04:09:13.706Z,2.97
2017-10-29T04:11:40.418Z,3.63
2017-10-29T04:14:07.033Z,2.67
2017-10-29T04:16:33.632Z,2.70
2017-10-29T04:19:00.241Z,3.10
2017-10-29T04:21:26.877Z,2.67
2017-10-29T04:23:53.505Z,2.47
2017-10-29T04:26:20.118Z,2.83
2017-10-29T04:28:46.714Z,2.43
2017-10-29T04:31:13.418Z,2.60
2017-10-29T04:33:40.006Z,2.20
2017-10-29T04:36:06.630Z,2.40
2017-10-29T04:38:33.332Z,2.00
2017-10-29T04:40:59.951Z,2.43
2017-10-29T04:45:59.686Z,2.20
2017-10-29T04:48:26.277Z,2.60
2017-10-29T04:50:52.870Z,2.97
2017-10-29T04:53:19.478Z,2.40
2017-10-29T04:55:46.095Z,2.37
2017-10-29T04:58:12.725Z,2.70
2017-10-29T05:00:39.347Z,2.73
2017-10-29T05:03:05.941Z,2.57
2017-10-29T05:05:32.533Z,3.00
2017-10-29T05:07:59.157Z,2.37
2017-10-29T05:10:25.757Z,2.60
2017-10-29T05:12:52.369Z,2.23
2017-10-29T05:15:18.975Z,2.60
2017-10-29T05:17:45.599Z,2.20
2017-10-29T05:20:12.214Z,2.90
2017-10-29T05:22:38.831Z,2.37
2017-10-29T05:25:05.441Z,2.90
2017-10-29T05:27:32.061Z,2.67
2017-10-29T05:29:58.679Z,2.57
2017-10-29T05:32:25.289Z,2.97
2017-10-29T05:34:51.902Z,2.03
2017-10-29T05:37:18.539Z,1.97
2017-10-29T05:39:45.141Z,2.50
2017-10-29T05:42:11.773Z,2.80
2017-10-29T05:44:38.393Z,2.20
2017-10-29T05:47:04.992Z,2.53
2017-10-29T05:49:31.627Z,2.60
2017-10-29T05:51:58.220Z,2.40
2017-10-29T05:54:24.841Z,2.40
2017-10-29T05:56:51.448Z,2.27
2017-10-29T05:59:18.066Z,2.10
2017-10-29T06:01:44.751Z,1.77
2017-10-29T06:04:11.393Z,2.83
2017-10-29T06:06:38.072Z,2.20
2017-10-29T06:09:04.773Z,2.23
2017-10-29T06:11:31.365Z,1.90
2017-10-29T06:13:57.992Z,2.30
2017-10-29T06:16:24.630Z,2.30
2017-10-29T06:18:51.251Z,1.93
2017-10-29T06:21:17.851Z,2.00
2017-10-29T06:23:44.475Z,2.00
2017-10-29T06:26:11.095Z,2.00
2017-10-29T06:28:37.694Z,2.23
2017-10-29T06:31:04.413Z,1.83
2017-10-29T06:33:31.047Z,2.03
2017-10-29T06:35:57.634Z,1.70
2017-10-29T06:38:24.273Z,1.50
2017-10-29T06:40:50.885Z,1.60
2017-10-29T06:43:17.505Z,1.47
2017-10-29T06:45:44.135Z,1.40
2017-10-29T06:48:10.737Z,1.50
2017-10-29T06:50:37.368Z,1.27
2017-10-29T06:53:03.994Z,1.30
2017-10-29T06:55:30.593Z,0.90
2017-10-29T06:57:57.225Z,1.10
2017-10-29T07:00:23.825Z,1.27
2017-10-29T07:02:50.482Z,1.20
2017-10-29T07:05:17.102Z,1.07
2017-10-29T07:07:43.709Z,0.70
2017-10-29T07:10:10.319Z,0.93
2017-10-29T07:12:36.945Z,1.10
2017-10-29T07:15:03.545Z,0.90
2017-10-29T07:17:30.137Z,1.20
2017-10-29T07:19:56.763Z,0.90
2017-10-29T07:22:23.365Z,0.77
2017-10-29T07:24:49.996Z,0.73
2017-10-29T07:27:16.608Z,1.50
2017-10-29T07:29:43.235Z,0.93
2017-10-29T07:32:09.856Z,0.70
2017-10-29T07:34:36.483Z,1.00
2017-10-29T07:37:03.111Z,0.73
2017-10-29T07:39:29.713Z,1.10
2017-10-29T07:41:56.393Z,0.83
2017-10-29T07:44:23.018Z,0.80
2017-10-29T07:46:49.664Z,0.90
2017-10-29T07:49:16.308Z,1.23
2017-10-29T07:51:42.928Z,0.80
2017-10-29T07:54:09.658Z,0.90
2017-10-29T07:56:36.564Z,0.80
2017-10-29T07:59:03.181Z,0.87
2017-10-29T08:01:29.805Z,0.77
2017-10-29T08:03:56.419Z,0.80
2017-10-29T08:06:23.013Z,0.60
2017-10-29T08:08:49.638Z,0.80
2017-10-29T08:11:16.253Z,0.80
2017-10-29T08:13:42.869Z,0.70
2017-10-29T08:16:09.479Z,0.67
2017-10-29T08:18:36.101Z,0.80
2017-10-29T08:21:02.717Z,0.80
2017-10-29T08:23:29.351Z,0.90
2017-10-29T08:25:55.950Z,1.13
2017-10-29T08:28:22.618Z,0.83
2017-10-29T08:30:49.205Z,1.17
2017-10-29T08:33:15.833Z,0.80
2017-10-29T08:35:42.441Z,0.80
2017-10-29T08:38:09.037Z,1.10
2017-10-29T08:40:35.640Z,0.80
2017-10-29T08:43:02.254Z,1.10
2017-10-29T08:45:28.902Z,0.90
2017-10-29T08:47:55.502Z,0.93
2017-10-29T08:50:22.125Z,1.00
2017-10-29T08:52:48.741Z,1.10
2017-10-29T08:55:15.332Z,0.80
2017-10-29T08:57:41.952Z,0.90
2017-10-29T09:00:08.548Z,1.00
2017-10-29T09:02:35.239Z,1.20
2017-10-29T09:05:01.839Z,1.00
2017-10-29T09:07:28.482Z,1.20
2017-10-29T09:09:55.156Z,1.10
2017-10-29T09:12:21.798Z,1.50
2017-10-29T09:14:48.389Z,1.00
2017-10-29T09:17:15.001Z,1.60
2017-10-29T09:19:41.679Z,0.80
2017-10-29T09:22:08.326Z,1.07
2017-10-29T09:24:34.963Z,1.57
2017-10-29T09:27:01.622Z,1.50
2017-10-29T09:29:28.212Z,1.30
2017-10-29T09:31:54.911Z,1.30
2017-10-29T09:34:21.567Z,1.20
2017-10-29T09:36:48.218Z,1.70
2017-10-29T09:39:14.888Z,1.10
2017-10-29T09:41:41.584Z,1.67
2017-10-29T09:44:08.184Z,1.37
2017-10-29T09:46:34.891Z,1.50
2017-10-29T09:49:01.545Z,1.10
2017-10-29T09:51:28.210Z,1.37
2017-10-29T09:53:54.817Z,1.37
2017-10-29T09:56:21.450Z,1.57
2017-10-29T09:58:48.107Z,1.47
2017-10-29T10:01:14.726Z,1.40
2017-10-29T10:03:41.347Z,1.50
2017-10-29T10:06:07.949Z,1.30
2017-10-29T10:08:34.667Z,1.60
2017-10-29T10:11:01.249Z,1.80
2017-10-29T10:13:27.851Z,1.90
2017-10-29T10:15:54.470Z,1.60
2017-10-29T10:18:21.093Z,2.47
2017-10-29T10:20:47.690Z,1.90
2017-10-29T10:23:14.320Z,2.20
2017-10-29T10:25:41.003Z,1.87
2017-10-29T10:28:07.621Z,2.07
2017-10-29T10:30:34.233Z,2.33
2017-10-29T10:33:00.857Z,2.23
2017-10-29T10:35:27.458Z,2.00
2017-10-29T10:37:54.065Z,2.50
2017-10-29T10:40:20.670Z,1.83
2017-10-29T10:42:47.294Z,1.67
2017-10-29T10:45:13.906Z,2.43
2017-10-29T10:47:40.553Z,1.60
2017-10-29T10:50:07.178Z,2.07
2017-10-29T10:52:33.785Z,2.23
2017-10-29T10:55:00.411Z,1.90
2017-10-29T10:57:27.001Z,2.10
2017-10-29T10:59:53.600Z,2.30
2017-10-29T11:02:20.220Z,2.10
2017-10-29T11:04:46.821Z,1.60
2017-10-29T11:07:13.425Z,2.43
2017-10-29T11:09:40.045Z,2.23
2017-10-29T11:12:06.656Z,1.50
2017-10-29T11:14:33.316Z,1.83
2017-10-29T11:16:59.901Z,1.87
2017-10-29T11:19:26.501Z,1.30
2017-10-29T11:21:53.141Z,1.30
2017-10-29T11:24:19.745Z,1.93
2017-10-29T11:26:46.372Z,1.80
2017-10-29T11:29:12.999Z,1.70
2017-10-29T11:31:39.593Z,2.30
2017-10-29T11:34:06.211Z,1.80
2017-10-29T11:36:32.833Z,2.47
2017-10-29T11:38:59.450Z,1.87
2017-10-29T11:41:26.074Z,2.27
2017-10-29T11:43:52.668Z,1.70
2017-10-29T11:46:19.261Z,1.77
2017-10-29T11:48:45.894Z,1.97
2017-10-29T11:51:12.500Z,2.40
2017-10-29T11:53:39.122Z,1.97
2017-10-29T11:56:05.738Z,2.40
2017-10-29T11:58:32.363Z,2.37
2017-10-29T12:00:58.953Z,3.27
2017-10-29T12:03:25.581Z,2.47
2017-10-29T12:05:52.198Z,2.33
2017-10-29T12:08:18.795Z,3.10
2017-10-29T12:10:45.404Z,2.43
2017-10-29T12:13:12.159Z,2.30
2017-10-29T12:15:38.785Z,3.20
2017-10-29T12:18:05.384Z,2.70
2017-10-29T12:20:32.013Z,2.73
2017-10-29T12:22:58.605Z,2.10
2017-10-29T12:25:25.242Z,3.60
2017-10-29T12:27:51.869Z,3.67
2017-10-29T12:30:18.486Z,2.60
2017-10-29T12:32:45.179Z,3.80
2017-10-29T12:35:11.807Z,3.17
2017-10-29T12:37:38.426Z,3.07
2017-10-29T12:40:05.035Z,4.20
2017-10-29T12:42:31.795Z,3.40
2017-10-29T12:44:58.469Z,3.70
2017-10-29T12:47:25.334Z,3.43
2017-10-29T12:49:52.050Z,3.57
2017-10-29T12:52:18.650Z,3.80
2017-10-29T12:54:45.254Z,3.50
2017-10-29T12:57:11.872Z,5.10
2017-10-29T12:59:38.516Z,3.67
2017-10-29T13:02:05.108Z,3.10
2017-10-29T13:04:31.729Z,3.03
2017-10-29T13:06:58.322Z,3.17
2017-10-29T13:09:25.052Z,3.37
2017-10-29T13:11:51.678Z,3.53
2017-10-29T13:14:18.333Z,4.70
2017-10-29T13:16:44.940Z,3.33
2017-10-29T13:19:11.574Z,2.97
2017-10-29T13:21:38.208Z,3.40
2017-10-29T13:24:04.806Z,4.30
2017-10-29T13:26:31.433Z,2.73
2017-10-29T13:28:58.059Z,3.00
2017-10-29T13:31:24.690Z,3.50
2017-10-29T13:33:51.298Z,3.30
2017-10-29T13:36:18.019Z,2.80
2017-10-29T13:38:44.617Z,3.40
2017-10-29T13:41:11.235Z,3.13
2017-10-29T13:43:37.854Z,3.30
2017-10-29T13:46:04.490Z,2.70
2017-10-29T13:48:31.120Z,2.70
2017-10-29T13:50:57.722Z,2.40
2017-10-29T13:53:24.349Z,2.90
2017-10-29T13:55:50.954Z,3.20
2017-10-29T13:58:17.594Z,2.90
2017-10-29T14:00:44.296Z,2.23
2017-10-29T14:03:10.883Z,2.50
2017-10-29T14:05:37.505Z,2.20
2017-10-29T14:08:04.137Z,2.23
2017-10-29T14:10:30.773Z,1.93
2017-10-29T14:12:57.484Z,2.60
2017-10-29T14:15:24.117Z,2.50
2017-10-29T14:17:50.725Z,2.80
2017-10-29T14:20:17.337Z,1.93
2017-10-29T14:22:44.041Z,2.10
2017-10-29T14:25:10.634Z,2.13
2017-10-29T14:27:37.241Z,2.10
2017-10-29T14:30:03.885Z,1.90
2017-10-29T14:32:30.489Z,2.93
2017-10-29T14:34:57.085Z,2.00
2017-10-29T14:37:23.703Z,2.10
2017-10-29T14:39:50.333Z,2.50
2017-10-29T14:42:16.933Z,2.33
2017-10-29T14:44:43.572Z,2.13
2017-10-29T14:47:10.192Z,2.40
2017-10-29T14:49:36.818Z,2.47
2017-10-29T14:52:03.417Z,3.20
2017-10-29T14:54:30.023Z,2.20
2017-10-29T14:56:56.658Z,2.67
2017-10-29T14:59:23.301Z,2.30
2017-10-29T15:01:49.894Z,2.43
2017-10-29T15:04:16.515Z,3.10
2017-10-29T15:06:43.128Z,2.80
2017-10-29T15:09:09.745Z,3.30
2017-10-29T15:11:36.345Z,3.00
2017-10-29T15:14:02.985Z,2.73
2017-10-29T15:16:29.592Z,2.97
2017-10-29T15:18:56.193Z,2.23
2017-10-29T15:21:22.805Z,2.77
2017-10-29T15:23:49.401Z,2.80
2017-10-29T15:26:16.004Z,3.13
2017-10-29T15:28:42.646Z,2.97
2017-10-29T15:31:09.247Z,2.37
2017-10-29T15:33:35.841Z,2.30
2017-10-29T15:36:02.465Z,3.47
2017-10-29T15:38:29.095Z,2.67
2017-10-29T15:40:55.720Z,2.60
2017-10-29T15:43:22.334Z,2.63
2017-10-29T15:45:48.941Z,2.27
2017-10-29T15:48:15.558Z,3.10
2017-10-29T15:50:42.281Z,2.83
2017-10-29T15:53:08.915Z,2.30
2017-10-29T15:55:35.525Z,3.23
2017-10-29T15:58:02.165Z,2.40
2017-10-29T16:00:28.757Z,3.30
2017-10-29T16:02:55.390Z,3.07
2017-10-29T16:05:22.025Z,2.60
2017-10-29T16:07:48.617Z,2.67
2017-10-29T16:10:15.287Z,2.93
2017-10-29T16:12:41.890Z,2.80
2017-10-29T16:15:08.497Z,2.93
2017-10-29T16:17:35.114Z,3.00
2017-10-29T16:20:01.723Z,3.00
2017-10-29T16:22:28.350Z,3.07
2017-10-29T16:24:55.016Z,3.73
2017-10-29T16:27:21.630Z,3.03
2017-10-29T16:29:48.264Z,2.40
2017-10-29T16:32:14.929Z,2.80
2017-10-29T16:34:41.539Z,2.83
2017-10-29T16:37:08.142Z,3.70
2017-10-29T16:39:34.770Z,4.37
2017-10-29T16:42:01.376Z,4.57
2017-10-29T16:44:28.013Z,3.33
2017-10-29T16:46:54.614Z,3.67
2017-10-29T16:49:21.238Z,3.50
2017-10-29T16:51:47.860Z,3.67
2017-10-29T16:54:14.477Z,3.77
2017-10-29T16:56:41.090Z,3.33
2017-10-29T16:59:07.689Z,3.57
2017-10-29T17:01:34.326Z,4.30
2017-10-29T17:04:00.926Z,4.33
2017-10-29T17:06:27.529Z,3.53
2017-10-29T17:08:54.158Z,3.30
2017-10-29T17:11:20.761Z,2.90
2017-10-29T17:13:47.379Z,3.80
2017-10-29T17:16:13.974Z,3.73
2017-10-29T17:18:40.604Z,4.60
2017-10-29T17:21:07.202Z,3.80
2017-10-29T17:23:33.811Z,3.30
2017-10-29T17:26:00.441Z,3.73
2017-10-29T17:28:27.067Z,3.97
2017-10-29T17:30:53.662Z,3.10
2017-10-29T17:33:20.279Z,3.00
2017-10-29T17:35:46.918Z,2.87
2017-10-29T17:38:13.540Z,3.10
2017-10-29T17:40:40.166Z,2.97
2017-10-29T17:43:06.764Z,2.70
2017-10-29T17:45:33.390Z,3.67
2017-10-29T17:48:00.094Z,3.07
2017-10-29T17:50:26.710Z,2.83
2017-10-29T17:52:53.375Z,2.60
2017-10-29T17:55:20.845Z,2.73
2017-10-29T17:57:47.505Z,3.00
2017-10-29T18:00:14.110Z,3.10
2017-10-29T18:02:40.726Z,3.33
2017-10-29T18:05:07.350Z,3.70
2017-10-29T18:07:33.968Z,3.60
2017-10-29T18:10:00.565Z,3.00
2017-10-29T18:12:27.295Z,3.60
2017-10-29T18:14:53.887Z,3.50
2017-10-29T18:17:20.495Z,4.30
2017-10-29T18:19:47.096Z,4.30
2017-10-29T18:22:13.709Z,5.53
2017-10-29T18:24:40.320Z,6.00
2017-10-29T18:27:06.966Z,5.33
2017-10-29T18:29:33.600Z,6.30
2017-10-29T18:32:00.201Z,6.67
2017-10-29T18:34:26.851Z,6.70
2017-10-29T18:36:53.480Z,5.90
2017-10-29T18:39:20.208Z,6.27
2017-10-29T18:41:46.843Z,4.40
2017-10-29T18:44:13.464Z,5.50
2017-10-29T18:46:40.105Z,5.20
2017-10-29T18:49:06.739Z,4.37
2017-10-29T18:51:33.331Z,4.80
2017-10-29T18:53:59.949Z,5.83
2017-10-29T18:56:26.562Z,5.70
2017-10-29T18:58:53.204Z,6.30
2017-10-29T19:01:19.830Z,5.43
2017-10-29T19:03:46.590Z,5.27
2017-10-29T19:06:13.189Z,5.30
2017-10-29T19:08:39.929Z,5.10
2017-10-29T19:11:06.648Z,6.57
2017-10-29T19:13:33.253Z,6.67
2017-10-29T19:15:59.876Z,7.37
2017-10-29T19:18:26.509Z,6.50
2017-10-29T19:20:53.123Z,6.50
2017-10-29T19:23:19.754Z,5.80
2017-10-29T19:25:46.354Z,5.80
2017-10-29T19:28:13.001Z,6.67
2017-10-29T19:30:39.601Z,5.27
2017-10-29T19:33:06.249Z,5.70
2017-10-29T19:35:32.870Z,5.60
2017-10-29T19:37:59.475Z,5.73
2017-10-29T19:40:26.130Z,6.97
2017-10-29T19:42:52.720Z,5.70
2017-10-29T19:45:19.333Z,7.43
2017-10-29T19:47:45.953Z,6.03
2017-10-29T19:50:12.590Z,6.60
2017-10-29T19:52:39.201Z,7.40
2017-10-29T19:55:05.801Z,6.47
2017-10-29T19:57:32.429Z,5.90
2017-10-29T19:59:59.049Z,6.90
2017-10-29T20:02:25.670Z,5.93
2017-10-29T20:04:52.316Z,6.50
2017-10-29T20:07:19.001Z,6.57
2017-10-29T20:09:45.606Z,5.53
2017-10-29T20:12:12.228Z,5.83
2017-10-29T20:14:39.105Z,6.57
2017-10-29T20:17:05.714Z,5.70
2017-10-29T20:19:32.339Z,5.60
2017-10-29T20:21:58.933Z,5.50
2017-10-29T20:24:25.529Z,6.57
2017-10-29T20:26:52.161Z,5.70
2017-10-29T20:29:18.761Z,5.00
2017-10-29T20:31:45.387Z,5.53
2017-10-29T20:34:12.005Z,4.80
2017-10-29T20:36:38.641Z,6.37
2017-10-29T20:39:05.246Z,5.90
2017-10-29T20:41:31.932Z,5.90
2017-10-29T20:43:58.533Z,5.13
2017-10-29T20:46:25.160Z,5.53
2017-10-29T20:48:51.783Z,6.30
2017-10-29T20:51:18.387Z,5.30
2017-10-29T20:53:45.008Z,6.27
2017-10-29T20:56:11.606Z,5.23
2017-10-29T20:58:38.289Z,5.57
2017-10-29T21:01:04.889Z,5.00
2017-10-29T21:03:31.626Z,4.90
2017-10-29T21:05:58.259Z,7.10
2017-10-29T21:08:24.889Z,6.87
2017-10-29T21:10:51.494Z,5.37
2017-10-29T21:13:18.178Z,5.40
2017-10-29T21:15:44.768Z,4.30
2017-10-29T21:18:11.370Z,4.50
2017-10-29T21:20:38.003Z,4.87
2017-10-29T21:23:04.619Z,4.23
2017-10-29T21:25:31.225Z,4.00
2017-10-29T21:27:57.861Z,4.60
2017-10-29T21:30:24.542Z,4.77
2017-10-29T21:32:51.166Z,5.20
2017-10-29T21:35:17.769Z,4.80
2017-10-29T21:37:44.372Z,4.60
2017-10-29T21:40:10.996Z,5.70
2017-10-29T21:42:37.609Z,4.80
2017-10-29T21:45:04.198Z,4.77
2017-10-29T21:47:30.853Z,4.33
2017-10-29T21:49:57.446Z,4.90
2017-10-29T21:52:24.075Z,4.37
2017-10-29T21:54:50.699Z,5.60
2017-10-29T21:57:17.383Z,5.37
2017-10-29T21:59:44.010Z,4.70
2017-10-29T22:02:10.651Z,4.70
2017-10-29T22:04:37.257Z,4.37
2017-10-29T22:07:04.006Z,4.23
2017-10-29T22:09:30.610Z,4.80
2017-10-29T22:11:57.203Z,4.17
2017-10-29T22:14:23.812Z,5.50
2017-10-29T22:16:50.409Z,4.60
2017-10-29T22:19:17.092Z,4.77
2017-10-29T22:21:43.700Z,5.37
2017-10-29T22:24:10.306Z,4.87
2017-10-29T22:26:36.908Z,4.80
2017-10-29T22:29:03.540Z,5.43
2017-10-29T22:31:30.179Z,4.80
2017-10-29T22:33:56.786Z,4.67
2017-10-29T22:36:23.377Z,4.73
2017-10-29T22:38:50.011Z,4.50
2017-10-29T22:41:16.640Z,4.67
2017-10-29T22:43:43.236Z,4.60
2017-10-29T22:46:09.841Z,3.90
2017-10-29T22:48:36.444Z,4.87
2017-10-29T22:51:03.061Z,5.00
2017-10-29T22:53:29.658Z,4.20
2017-10-29T22:55:56.288Z,4.63
2017-10-29T22:58:22.889Z,4.93
2017-10-29T23:00:49.528Z,5.30
2017-10-29T23:03:16.149Z,4.87
2017-10-29T23:05:48.653Z,4.90
2017-10-29T23:08:15.265Z,5.50
2017-10-29T23:10:41.889Z,5.43
2017-10-29T23:13:08.492Z,4.60
2017-10-29T23:15:35.114Z,4.80
2017-10-29T23:18:01.713Z,4.80
2017-10-29T23:20:28.357Z,4.63
2017-10-29T23:22:55.423Z,5.37
2017-10-29T23:25:22.025Z,4.87
2017-10-29T23:27:48.623Z,4.83
2017-10-29T23:30:15.255Z,4.90
2017-10-29T23:32:41.865Z,4.03
2017-10-29T23:35:08.458Z,3.83
2017-10-29T23:37:35.076Z,4.13
2017-10-29T23:40:01.697Z,4.87
2017-10-29T23:42:28.288Z,3.83
2017-10-29T23:44:55.015Z,4.00
2017-10-29T23:47:21.633Z,3.70
2017-10-29T23:49:48.249Z,4.40
2017-10-29T23:52:14.845Z,3.93
2017-10-29T23:54:41.567Z,4.33
2017-10-29T23:57:08.169Z,4.30
2017-10-29T23:59:34.844Z,3.93
